Time;durP1;ratioP1;P1;durP2;ratioP2;P2;SDS_P1;SDS_P2;PMS_P1;PMS_P2;Temp;Humidity;BMP_temperature;BMP_pressure;BME280_temperature;BME280_humidity;BME280_pressure;Samples;Min_cycle;Max_cycle;Signal;HPM_P1;HPM_P2
2021/07/09 00:01:03;;;;;;;15.47;7.73;;;27.10;61.30;;;;;;5093381;28;20411;-79
2021/07/09 00:03:29;;;;;;;11.88;7.47;;;27.10;61.70;;;;;;5093247;28;20542;-79
2021/07/09 00:05:55;;;;;;;9.25;7.65;;;27.10;61.40;;;;;;5092704;28;20063;-80
2021/07/09 00:08:21;;;;;;;12.77;7.70;;;27.00;61.80;;;;;;5059310;28;20032;-81
2021/07/09 00:10:47;;;;;;;10.75;7.82;;;26.90;62.20;;;;;;5093478;28;20063;-80
2021/07/09 00:13:13;;;;;;;11.55;8.00;;;26.90;62.00;;;;;;5075403;28;20078;-80
2021/07/09 00:15:39;;;;;;;12.98;7.40;;;27.00;61.50;;;;;;5093137;28;20054;-80
2021/07/09 00:18:05;;;;;;;14.10;8.13;;;27.10;61.90;;;;;;5075522;28;20035;-80
2021/07/09 00:20:31;;;;;;;10.95;7.90;;;26.90;62.00;;;;;;5093233;28;20081;-81
2021/07/09 00:22:57;;;;;;;14.93;8.40;;;27.00;61.80;;;;;;5093277;28;20039;-80
2021/07/09 00:25:23;;;;;;;12.73;7.53;;;27.10;61.60;;;;;;5093725;28;20494;-80
2021/07/09 00:27:49;;;;;;;12.85;7.78;;;27.10;61.60;;;;;;5093175;28;20036;-80
2021/07/09 00:30:15;;;;;;;11.07;7.50;;;27.10;61.40;;;;;;5074859;28;20032;-80
2021/07/09 00:32:42;;;;;;;9.02;7.53;;;27.10;61.00;;;;;;5093404;28;20170;-79
2021/07/09 00:35:09;;;;;;;15.18;7.93;;;27.10;61.20;;;;;;5092882;28;20055;-80
2021/07/09 00:37:34;;;;;;;12.95;7.70;;;27.10;61.10;;;;;;5093025;28;20051;-80
2021/07/09 00:40:05;;;;;;;10.30;7.07;;;27.10;61.20;;;;;;5093013;28;20036;-80
2021/07/09 00:42:30;;;;;;;11.50;7.53;;;27.00;61.20;;;;;;5093299;28;20039;-81
2021/07/09 00:44:56;;;;;;;11.32;7.65;;;27.10;61.00;;;;;;5092871;28;20032;-80
2021/07/09 00:47:23;;;;;;;11.70;7.72;;;27.10;60.60;;;;;;5097608;28;20073;-80
2021/07/09 00:49:49;;;;;;;11.23;7.20;;;27.20;60.60;;;;;;5102199;28;20044;-80
2021/07/09 00:52:16;;;;;;;11.52;7.50;;;27.30;60.60;;;;;;5092898;28;20044;-80
2021/07/09 00:54:42;;;;;;;9.38;7.63;;;27.30;60.30;;;;;;5108478;28;20423;-79
2021/07/09 00:57:10;;;;;;;9.73;7.15;;;27.10;60.10;;;;;;5092552;28;20032;-79
2021/07/09 00:59:36;;;;;;;8.57;7.40;;;27.10;59.50;;;;;;5058060;28;20093;-79
2021/07/09 01:02:02;;;;;;;11.52;7.63;;;27.10;59.40;;;;;;5092896;28;20420;-81
2021/07/09 01:04:28;;;;;;;14.48;7.47;;;27.10;59.80;;;;;;5108336;28;20492;-81
2021/07/09 01:06:55;;;;;;;8.95;7.65;;;27.10;60.10;;;;;;5092738;28;20044;-78
2021/07/09 01:09:21;;;;;;;10.55;7.35;;;27.10;60.00;;;;;;5108442;28;20048;-79
2021/07/09 01:11:50;;;;;;;12.65;7.82;;;26.80;60.50;;;;;;5074709;28;20039;-77
2021/07/09 01:14:22;;;;;;;11.15;7.63;;;26.90;61.50;;;;;;5074369;28;20135;-79
2021/07/09 01:16:50;;;;;;;11.38;8.02;;;26.70;62.10;;;;;;5094010;28;20048;-80
2021/07/09 01:19:20;;;;;;;10.75;7.93;;;26.80;62.10;;;;;;5096638;28;20078;-82
2021/07/09 01:21:47;;;;;;;12.68;7.18;;;26.70;62.50;;;;;;5061661;28;20566;-79
2021/07/09 01:24:14;;;;;;;12.77;7.88;;;26.80;62.00;;;;;;5096575;28;20028;-81
2021/07/09 01:26:41;;;;;;;12.27;7.82;;;26.60;62.50;;;;;;5096656;28;20031;-79
2021/07/09 01:29:08;;;;;;;11.30;7.78;;;26.70;62.00;;;;;;5078516;28;20036;-78
2021/07/09 01:31:36;;;;;;;14.43;7.18;;;26.70;62.70;;;;;;5111998;28;20038;-77
2021/07/09 01:34:04;;;;;;;10.18;7.07;;;26.50;62.70;;;;;;5096386;28;20056;-79
2021/07/09 01:36:30;;;;;;;11.15;8.20;;;26.70;63.00;;;;;;5078377;28;20158;-79
2021/07/09 01:38:56;;;;;;;14.15;8.40;;;26.60;62.90;;;;;;5061495;28;20054;-78
2021/07/09 01:41:22;;;;;;;11.35;7.95;;;26.80;62.70;;;;;;5096029;28;20048;-80
2021/07/09 01:43:48;;;;;;;12.75;7.65;;;26.90;62.60;;;;;;5078219;28;20067;-79
2021/07/09 01:46:14;;;;;;;12.70;7.75;;;26.90;62.50;;;;;;5096505;28;20040;-79
2021/07/09 01:48:40;;;;;;;11.20;7.82;;;26.90;62.50;;;;;;5101388;28;20042;-80
2021/07/09 01:51:06;;;;;;;12.38;7.97;;;26.80;62.30;;;;;;5104699;28;20028;-79
2021/07/09 01:53:33;;;;;;;11.20;7.90;;;26.90;62.40;;;;;;5095995;28;20036;-79
2021/07/09 01:55:59;;;;;;;10.90;7.85;;;26.80;62.70;;;;;;5111403;28;20047;-79
2021/07/09 01:58:25;;;;;;;9.25;8.18;;;26.90;62.70;;;;;;5096630;28;20036;-79
2021/07/09 02:00:51;;;;;;;16.60;8.35;;;26.80;62.50;;;;;;5096140;28;20092;-84
2021/07/09 02:03:18;;;;;;;12.15;8.27;;;26.70;61.40;;;;;;5095805;28;20040;-78
2021/07/09 02:05:44;;;;;;;12.05;7.93;;;26.70;61.90;;;;;;5095658;28;20032;-79
2021/07/09 02:08:10;;;;;;;14.27;8.63;;;26.70;62.00;;;;;;5095771;28;20035;-78
2021/07/09 02:10:38;;;;;;;15.77;8.70;;;26.70;61.70;;;;;;5095665;28;20091;-78
2021/07/09 02:13:05;;;;;;;16.15;9.18;;;26.70;61.20;;;;;;5095528;28;20512;-80
2021/07/09 02:15:45;;;;;;;15.65;9.52;;;26.70;61.10;;;;;;5095593;28;20040;-78
2021/07/09 02:18:12;;;;;;;20.38;9.50;;;26.70;62.20;;;;;;5095544;28;20047;-78
2021/07/09 02:20:38;;;;;;;14.20;9.35;;;26.70;62.10;;;;;;5095572;28;20075;-78
2021/07/09 02:23:07;;;;;;;16.98;9.20;;;26.80;62.10;;;;;;5095351;28;20071;-79
2021/07/09 02:25:33;;;;;;;16.35;9.57;;;26.80;61.40;;;;;;5095352;28;20392;-80
2021/07/09 02:27:59;;;;;;;12.02;9.18;;;27.00;62.20;;;;;;5094656;28;20478;-79
2021/07/09 02:30:27;;;;;;;14.10;9.25;;;27.10;62.50;;;;;;5095152;28;20111;-78
2021/07/09 02:32:53;;;;;;;16.35;9.05;;;27.20;62.10;;;;;;5095381;28;20040;-81
2021/07/09 02:35:22;;;;;;;19.63;10.00;;;27.40;60.90;;;;;;5094947;28;20105;-78
2021/07/09 02:37:49;;;;;;;18.58;8.88;;;27.50;60.70;;;;;;5094701;28;20126;-78
2021/07/09 02:40:19;;;;;;;13.05;9.07;;;27.60;60.40;;;;;;5095039;28;20062;-81
2021/07/09 02:42:47;;;;;;;10.70;8.00;;;27.70;60.40;;;;;;5076824;28;20492;-77
2021/07/09 02:45:14;;;;;;;14.02;8.40;;;27.80;60.70;;;;;;5110652;28;20370;-80
2021/07/09 02:47:42;;;;;;;14.32;9.00;;;28.00;60.40;;;;;;5094794;28;20070;-79
2021/07/09 02:50:11;;;;;;;14.25;9.20;;;28.10;59.90;;;;;;5104003;28;20115;-80
2021/07/09 02:52:37;;;;;;;10.80;8.25;;;28.20;60.00;;;;;;5099231;28;20036;-80
2021/07/09 02:55:08;;;;;;;15.85;8.85;;;28.30;60.00;;;;;;5094825;28;20036;-80
2021/07/09 02:57:35;;;;;;;12.07;7.75;;;28.40;59.30;;;;;;5094968;28;20024;-79
2021/07/09 03:00:00;;;;;;;11.50;8.45;;;28.50;59.00;;;;;;5094618;28;20031;-78
2021/07/09 03:02:26;;;;;;;12.48;7.95;;;28.60;59.20;;;;;;5110162;28;20492;-80
2021/07/09 03:04:52;;;;;;;14.18;7.82;;;28.70;58.50;;;;;;5059712;28;20039;-80
2021/07/09 03:07:18;;;;;;;15.02;8.60;;;28.80;58.30;;;;;;5076475;28;20081;-79
2021/07/09 03:09:45;;;;;;;13.10;7.93;;;28.80;58.20;;;;;;5093240;28;20069;-80
2021/07/09 03:12:11;;;;;;;14.65;8.43;;;28.80;58.60;;;;;;5094158;28;20044;-80
2021/07/09 03:14:37;;;;;;;12.93;7.93;;;28.80;59.40;;;;;;5094273;28;20089;-79
2021/07/09 03:17:03;;;;;;;11.30;8.05;;;28.70;59.80;;;;;;5100762;28;20036;-79
2021/07/09 03:19:29;;;;;;;15.52;7.88;;;28.70;59.70;;;;;;5101840;28;20128;-80
2021/07/09 03:21:55;;;;;;;14.45;8.07;;;28.70;60.20;;;;;;5094390;28;20499;-81
2021/07/09 03:24:21;;;;;;;13.15;8.43;;;28.60;59.80;;;;;;5075966;28;20040;-82
2021/07/09 03:26:47;;;;;;;12.52;8.48;;;28.60;60.30;;;;;;5081556;28;20110;-82
2021/07/09 03:29:12;;;;;;;14.40;8.48;;;28.60;60.30;;;;;;5087246;28;20036;-81
2021/07/09 03:31:38;;;;;;;12.80;7.72;;;28.70;59.30;;;;;;5095883;28;20504;-81
2021/07/09 03:34:04;;;;;;;19.63;9.73;;;28.80;58.50;;;;;;5093754;28;20059;-79
2021/07/09 03:36:30;;;;;;;13.32;9.00;;;28.90;58.30;;;;;;5093517;28;20511;-79
2021/07/09 03:38:59;;;;;;;13.52;8.73;;;29.00;58.30;;;;;;5093044;28;20127;-80
2021/07/09 03:41:25;;;;;;;14.23;7.85;;;29.10;58.40;;;;;;5107007;27;20406;-80
2021/07/09 03:43:52;;;;;;;15.15;8.25;;;29.20;58.80;;;;;;5114426;28;20036;-80
2021/07/09 03:46:18;;;;;;;14.52;8.18;;;29.30;58.30;;;;;;5095855;28;20410;-80
2021/07/09 03:48:44;;;;;;;15.55;8.55;;;29.40;57.90;;;;;;5095830;28;20044;-80
2021/07/09 03:51:10;;;;;;;16.25;8.82;;;29.40;57.60;;;;;;5114247;28;20038;-79
2021/07/09 03:53:36;;;;;;;12.63;8.25;;;29.60;57.90;;;;;;5113805;28;20036;-80
2021/07/09 03:56:03;;;;;;;12.23;7.68;;;29.60;57.50;;;;;;5095439;28;20084;-78
2021/07/09 03:58:31;;;;;;;11.80;7.78;;;29.70;57.10;;;;;;5113664;28;20036;-79
2021/07/09 04:00:58;;;;;;;16.58;8.43;;;29.90;57.20;;;;;;5113509;28;20036;-80
2021/07/09 04:03:24;;;;;;;18.35;8.55;;;29.80;57.60;;;;;;5113281;28;20074;-80
2021/07/09 04:05:50;;;;;;;13.00;7.13;;;30.00;57.20;;;;;;5095608;28;20122;-80
2021/07/09 04:08:15;;;;;;;17.42;7.35;;;30.00;57.10;;;;;;5113835;28;20093;-78
2021/07/09 04:10:41;;;;;;;18.25;8.75;;;30.10;57.10;;;;;;5113473;28;20403;-77
2021/07/09 04:13:07;;;;;;;13.32;7.68;;;30.20;56.90;;;;;;5113458;28;20399;-76
2021/07/09 04:15:33;;;;;;;12.68;7.55;;;30.30;56.80;;;;;;5111566;28;20084;-78
2021/07/09 04:17:59;;;;;;;15.43;8.32;;;30.40;56.80;;;;;;5102414;28;20457;-77
2021/07/09 04:20:25;;;;;;;16.05;7.45;;;30.40;57.30;;;;;;5093453;28;20124;-77
2021/07/09 04:22:57;;;;;;;12.57;7.28;;;30.50;56.60;;;;;;5102815;27;20483;-77
2021/07/09 04:25:24;;;;;;;9.10;7.03;;;30.60;56.70;;;;;;5093888;28;20040;-77
2021/07/09 04:27:50;;;;;;;11.35;6.43;;;30.60;56.50;;;;;;5097955;28;20059;-77
2021/07/09 04:30:16;;;;;;;10.18;7.07;;;30.70;56.30;;;;;;5104877;28;20031;-77
2021/07/09 04:32:42;;;;;;;10.60;7.60;;;30.80;56.20;;;;;;5103719;28;20032;-74
2021/07/09 04:35:09;;;;;;;10.70;6.97;;;30.90;56.30;;;;;;5092444;28;20142;-77
2021/07/09 04:37:35;;;;;;;11.07;6.80;;;30.90;56.30;;;;;;5092748;28;20036;-76
2021/07/09 04:40:03;;;;;;;12.02;6.70;;;31.00;56.20;;;;;;5092963;28;20048;-76
2021/07/09 04:42:29;;;;;;;11.70;7.45;;;31.10;56.10;;;;;;5100406;28;20040;-76
2021/07/09 04:44:55;;;;;;;11.13;6.68;;;31.20;56.10;;;;;;5098659;28;20131;-76
2021/07/09 04:47:21;;;;;;;10.10;6.38;;;31.20;55.90;;;;;;5092674;28;20028;-76
2021/07/09 04:49:47;;;;;;;12.23;7.22;;;31.30;55.70;;;;;;5092568;28;20066;-75
2021/07/09 04:52:13;;;;;;;12.10;7.65;;;31.40;55.60;;;;;;5096517;28;20047;-75
2021/07/09 04:54:39;;;;;;;12.05;6.95;;;31.40;55.50;;;;;;5096678;28;20032;-75
2021/07/09 04:57:05;;;;;;;12.88;6.90;;;31.50;55.30;;;;;;5096884;28;20407;-76
2021/07/09 04:59:31;;;;;;;11.52;6.15;;;31.50;55.20;;;;;;5096826;28;20043;-75
2021/07/09 05:01:57;;;;;;;11.43;6.88;;;31.60;55.20;;;;;;5097028;28;20028;-75
2021/07/09 05:04:22;;;;;;;11.93;6.53;;;31.60;55.10;;;;;;5096629;28;20123;-75
2021/07/09 05:06:49;;;;;;;9.95;7.03;;;31.70;55.10;;;;;;5096505;28;20362;-75
2021/07/09 05:09:15;;;;;;;13.93;6.95;;;31.70;55.10;;;;;;5096761;28;20044;-75
2021/07/09 05:11:41;;;;;;;8.63;6.60;;;31.80;55.00;;;;;;5096605;28;20031;-75
2021/07/09 05:14:07;;;;;;;10.02;6.82;;;31.90;55.00;;;;;;5096454;28;20123;-75
2021/07/09 05:16:36;;;;;;;10.50;6.55;;;31.90;54.90;;;;;;5096246;28;20036;-75
2021/07/09 05:19:03;;;;;;;10.38;6.22;;;32.00;54.80;;;;;;5077909;28;20123;-75
2021/07/09 05:21:29;;;;;;;10.88;6.45;;;32.00;54.80;;;;;;5077953;28;20142;-75
2021/07/09 05:23:55;;;;;;;10.35;6.47;;;32.10;54.60;;;;;;5096457;28;20441;-75
2021/07/09 05:26:22;;;;;;;8.27;6.25;;;32.20;54.50;;;;;;5096177;28;20028;-75
2021/07/09 05:28:49;;;;;;;9.65;6.00;;;32.20;54.30;;;;;;5096211;28;20039;-75
2021/07/09 05:31:15;;;;;;;9.57;6.00;;;32.30;54.30;;;;;;5095918;28;20044;-76
2021/07/09 05:33:42;;;;;;;9.70;6.32;;;32.40;54.20;;;;;;5061215;28;20076;-75
2021/07/09 05:36:07;;;;;;;9.82;6.03;;;32.40;54.00;;;;;;5095897;28;20437;-75
2021/07/09 05:38:33;;;;;;;9.73;5.85;;;32.40;54.00;;;;;;5061268;28;20139;-75
2021/07/09 05:40:59;;;;;;;9.23;6.10;;;32.50;54.00;;;;;;5096725;28;20028;-75
2021/07/09 05:43:25;;;;;;;10.45;6.00;;;32.50;54.00;;;;;;5077930;28;20040;-75
2021/07/09 05:45:51;;;;;;;14.50;5.72;;;32.50;53.80;;;;;;5077646;28;20035;-75
2021/07/09 05:48:17;;;;;;;8.60;5.13;;;32.60;53.80;;;;;;5095678;28;20024;-75
2021/07/09 05:50:45;;;;;;;10.82;5.93;;;32.60;53.70;;;;;;5095728;28;20503;-75
2021/07/09 05:53:11;;;;;;;11.07;5.60;;;32.60;53.50;;;;;;5095433;28;20039;-74
2021/07/09 05:55:37;;;;;;;8.55;5.18;;;32.60;53.40;;;;;;5095799;28;20044;-75
2021/07/09 05:58:03;;;;;;;9.68;5.15;;;32.70;53.20;;;;;;5095653;28;20050;-75
2021/07/09 06:00:28;;;;;;;11.93;5.28;;;32.70;53.10;;;;;;5095658;28;20040;-76
2021/07/09 06:02:54;;;;;;;6.18;4.65;;;32.70;53.00;;;;;;5094612;28;20044;-75
2021/07/09 06:05:20;;;;;;;7.82;5.10;;;32.80;52.90;;;;;;5095627;28;20044;-75
2021/07/09 06:07:46;;;;;;;10.70;4.57;;;32.80;52.80;;;;;;5095387;28;20043;-75
2021/07/09 06:10:12;;;;;;;10.50;5.10;;;32.80;52.50;;;;;;5095700;28;20445;-75
2021/07/09 06:12:38;;;;;;;11.90;5.40;;;32.80;52.50;;;;;;5095386;28;20426;-76
2021/07/09 06:15:05;;;;;;;18.65;5.05;;;32.90;52.60;;;;;;5095393;28;20040;-75
2021/07/09 06:17:31;;;;;;;28.67;6.13;;;32.90;52.60;;;;;;5077563;28;20040;-76
2021/07/09 06:19:57;;;;;;;23.05;5.93;;;32.90;52.60;;;;;;5095302;28;20030;-76
2021/07/09 06:22:23;;;;;;;31.15;6.03;;;33.00;52.70;;;;;;5095505;28;20435;-74
2021/07/09 06:24:49;;;;;;;22.48;5.43;;;33.00;52.60;;;;;;5095182;28;20036;-74
2021/07/09 06:27:15;;;;;;;30.08;5.55;;;33.00;52.40;;;;;;5095173;28;20391;-74
2021/07/09 06:29:42;;;;;;;21.25;5.25;;;33.00;52.10;;;;;;5095094;28;20117;-76
2021/07/09 06:32:09;;;;;;;14.85;4.88;;;33.00;51.50;;;;;;5095255;28;20511;-77
2021/07/09 06:34:35;;;;;;;12.48;5.18;;;32.90;51.40;;;;;;5094943;28;20052;-76
2021/07/09 06:37:00;;;;;;;11.50;5.32;;;32.80;51.30;;;;;;5095026;28;20036;-75
2021/07/09 06:39:27;;;;;;;7.43;4.78;;;32.90;51.40;;;;;;5094866;28;20123;-75
2021/07/09 06:41:53;;;;;;;8.98;4.93;;;32.70;51.30;;;;;;5060097;28;20039;-77
2021/07/09 06:44:19;;;;;;;8.05;5.07;;;32.60;51.10;;;;;;5110576;28;20040;-78
2021/07/09 06:46:46;;;;;;;5.85;4.25;;;32.60;51.00;;;;;;5095140;28;20035;-77
2021/07/09 06:49:12;;;;;;;11.20;5.00;;;32.50;50.50;;;;;;5094847;28;20067;-77
2021/07/09 06:51:38;;;;;;;8.63;4.65;;;32.60;50.70;;;;;;5076974;28;20494;-75
2021/07/09 06:54:04;;;;;;;8.57;4.57;;;32.60;50.90;;;;;;5094659;28;20035;-78
2021/07/09 06:56:30;;;;;;;8.48;5.03;;;32.60;50.90;;;;;;5076707;28;20059;-80
2021/07/09 06:58:55;;;;;;;11.98;5.00;;;32.60;51.10;;;;;;5094636;28;20437;-77
2021/07/09 07:01:21;;;;;;;5.65;4.82;;;32.60;51.20;;;;;;5094816;28;20119;-80
2021/07/09 07:03:47;;;;;;;11.68;5.05;;;32.70;51.20;;;;;;5094451;28;20399;-80
2021/07/09 07:06:14;;;;;;;9.15;4.82;;;32.70;51.10;;;;;;5094181;28;20093;-77
2021/07/09 07:08:40;;;;;;;5.60;4.53;;;32.70;51.20;;;;;;5094124;28;20047;-76
2021/07/09 07:11:07;;;;;;;9.98;4.93;;;32.60;51.30;;;;;;5094219;28;20036;-78
2021/07/09 07:13:33;;;;;;;7.13;4.63;;;32.50;52.10;;;;;;5058792;28;20407;-77
2021/07/09 07:15:59;;;;;;;11.77;5.55;;;32.40;51.30;;;;;;5093483;28;20043;-77
2021/07/09 07:18:25;;;;;;;6.95;4.95;;;32.40;51.20;;;;;;5094035;28;20036;-79
2021/07/09 07:20:53;;;;;;;8.88;5.00;;;32.30;51.80;;;;;;5076346;28;20040;-77
2021/07/09 07:23:19;;;;;;;6.90;5.35;;;32.30;51.20;;;;;;5094182;28;20036;-75
2021/07/09 07:25:48;;;;;;;5.97;5.25;;;32.30;51.30;;;;;;5094365;28;20040;-76
2021/07/09 07:28:14;;;;;;;11.05;5.65;;;32.20;51.50;;;;;;5093697;28;20040;-77
2021/07/09 07:30:41;;;;;;;14.18;6.18;;;32.20;52.30;;;;;;5109477;28;20047;-76
2021/07/09 07:33:09;;;;;;;12.95;6.60;;;32.20;51.90;;;;;;5094013;28;20082;-75
2021/07/09 07:35:37;;;;;;;11.07;6.32;;;32.30;52.20;;;;;;5094188;28;20056;-76
2021/07/09 07:38:04;;;;;;;8.75;5.90;;;32.30;52.20;;;;;;5092531;28;20062;-77
2021/07/09 07:40:30;;;;;;;13.18;6.40;;;32.30;52.30;;;;;;5093623;28;20039;-77
2021/07/09 07:42:56;;;;;;;6.65;5.93;;;32.30;52.30;;;;;;5093098;28;20503;-76
2021/07/09 07:45:22;;;;;;;8.93;5.43;;;32.20;52.20;;;;;;5093648;28;20031;-75
2021/07/09 07:47:48;;;;;;;7.57;5.43;;;32.20;52.20;;;;;;5093586;28;20081;-75
2021/07/09 07:50:16;;;;;;;8.65;5.78;;;32.20;52.20;;;;;;5093750;28;20068;-75
2021/07/09 07:52:42;;;;;;;8.07;5.40;;;32.20;52.20;;;;;;5093559;28;20048;-75
2021/07/09 07:55:09;;;;;;;7.07;5.03;;;32.20;52.20;;;;;;5093508;28;20090;-75
2021/07/09 07:57:35;;;;;;;6.57;4.78;;;32.20;52.10;;;;;;5093374;28;20071;-75
2021/07/09 08:00:00;;;;;;;6.15;5.28;;;32.20;51.90;;;;;;5093762;28;20077;-76
2021/07/09 08:02:26;;;;;;;7.43;5.22;;;32.10;51.70;;;;;;5093301;28;20128;-75
2021/07/09 08:04:53;;;;;;;5.95;5.38;;;32.20;51.80;;;;;;5093627;28;20437;-75
2021/07/09 08:07:19;;;;;;;6.63;5.35;;;32.10;51.50;;;;;;5093397;28;20042;-76
2021/07/09 08:09:45;;;;;;;11.80;5.50;;;32.10;51.50;;;;;;5093638;28;20496;-82
2021/07/09 08:12:12;;;;;;;5.85;5.03;;;32.10;51.50;;;;;;5093247;28;20057;-77
2021/07/09 08:14:37;;;;;;;5.60;5.00;;;32.10;51.40;;;;;;5093628;28;20499;-76
2021/07/09 08:17:05;;;;;;;10.65;5.15;;;32.00;51.40;;;;;;5093188;28;20039;-77
2021/07/09 08:19:31;;;;;;;5.63;4.88;;;32.00;51.40;;;;;;5093397;28;20498;-76
2021/07/09 08:21:57;;;;;;;9.20;5.13;;;32.00;51.40;;;;;;5075380;28;20036;-77
2021/07/09 08:24:23;;;;;;;6.40;5.20;;;32.00;51.50;;;;;;5092952;28;20032;-78
2021/07/09 08:26:49;;;;;;;11.57;5.60;;;31.90;51.60;;;;;;5092775;28;20037;-90
2021/07/09 08:29:15;;;;;;;8.35;5.38;;;31.90;51.60;;;;;;5075302;28;20089;-89
2021/07/09 08:31:41;;;;;;;8.50;5.40;;;31.90;54.30;;;;;;5093175;28;20115;-84
2021/07/09 08:34:07;;;;;;;12.82;5.55;;;31.90;56.20;;;;;;5074719;28;20060;-81
2021/07/09 08:36:34;;;;;;;12.55;5.47;;;31.90;55.90;;;;;;5092940;28;20528;-82
2021/07/09 08:39:00;;;;;;;17.92;5.60;;;31.80;55.90;;;;;;5074936;28;20082;-79
2021/07/09 08:41:26;;;;;;;9.30;5.50;;;31.80;55.80;;;;;;5074973;28;20038;-84
2021/07/09 08:43:52;;;;;;;29.40;6.35;;;31.70;56.40;;;;;;5093216;28;20028;-79
2021/07/09 08:46:18;;;;;;;48.13;8.27;;;31.70;56.30;;;;;;5093134;28;20054;-82
2021/07/09 08:48:44;;;;;;;25.05;6.68;;;31.60;56.20;;;;;;5092752;28;20028;-81
2021/07/09 08:51:11;;;;;;;36.38;7.28;;;31.60;56.50;;;;;;5091724;28;20032;-84
2021/07/09 08:53:39;;;;;;;16.25;5.75;;;31.60;56.90;;;;;;5074047;28;20496;-82
2021/07/09 08:56:05;;;;;;;6.88;5.57;;;31.60;56.20;;;;;;5074955;28;20127;-80
2021/07/09 08:58:32;;;;;;;23.90;6.43;;;31.60;54.90;;;;;;5092827;28;20503;-80
2021/07/09 09:00:58;;;;;;;15.18;5.75;;;31.60;55.10;;;;;;5091406;28;20043;-75
2021/07/09 09:03:26;;;;;;;10.05;5.30;;;31.50;56.20;;;;;;5092639;28;20069;-80
2021/07/09 09:05:59;;;;;;;19.10;5.63;;;31.50;56.30;;;;;;5092993;28;20043;-75
2021/07/09 09:08:25;;;;;;;10.80;5.40;;;31.60;56.30;;;;;;5074376;28;20412;-75
2021/07/09 09:10:56;;;;;;;7.85;5.20;;;31.50;56.00;;;;;;5092602;28;20044;-75
2021/07/09 09:13:27;;;;;;;10.30;5.90;;;31.40;56.50;;;;;;5091185;28;20051;-75
2021/07/09 09:16:10;;;;;;;12.63;5.35;;;31.40;56.70;;;;;;5107954;28;20047;-75
2021/07/09 09:18:37;;;;;;;8.23;5.65;;;31.40;56.80;;;;;;5074348;28;20036;-74
2021/07/09 09:21:10;;;;;;;9.60;5.20;;;31.30;56.70;;;;;;5057475;28;20392;-78
2021/07/09 09:23:49;;;;;;;8.25;5.50;;;31.30;53.00;;;;;;5092756;28;20036;-76
2021/07/09 09:26:53;;;;;;;10.23;5.25;;;31.30;53.60;;;;;;5108028;28;20043;-78
2021/07/09 09:29:25;;;;;;;7.80;5.15;;;31.30;49.90;;;;;;5074354;28;20123;-79
2021/07/09 09:31:56;;;;;;;6.53;5.93;;;31.30;50.70;;;;;;5074136;28;20039;-81
2021/07/09 09:34:48;;;;;;;6.43;4.95;;;31.30;52.90;;;;;;5092396;28;20560;-79
2021/07/09 09:37:19;;;;;;;6.10;5.50;;;31.30;54.00;;;;;;5092689;28;20040;-80
2021/07/09 09:39:47;;;;;;;6.55;5.57;;;31.20;54.30;;;;;;5095992;28;20074;-86
2021/07/09 09:42:21;;;;;;;6.65;5.07;;;31.20;55.10;;;;;;5095914;28;20043;-80
2021/07/09 09:44:51;;;;;;;6.85;5.63;;;31.10;55.70;;;;;;5096246;28;20047;-77
2021/07/09 09:47:22;;;;;;;6.55;5.78;;;31.10;55.80;;;;;;5111566;28;20040;-77
2021/07/09 09:49:57;;;;;;;7.28;5.60;;;31.10;55.90;;;;;;5096556;28;20424;-77
2021/07/09 09:52:36;;;;;;;7.25;5.38;;;31.10;56.00;;;;;;5095781;28;20411;-77
2021/07/09 09:55:07;;;;;;;6.40;5.50;;;31.10;56.00;;;;;;5096176;28;20400;-77
2021/07/09 09:57:34;;;;;;;7.15;5.85;;;31.00;55.90;;;;;;5095845;28;20492;-77
2021/07/09 10:00:00;;;;;;;6.70;5.70;;;31.10;55.90;;;;;;5095820;28;20058;-77
2021/07/09 10:02:26;;;;;;;9.27;6.00;;;31.00;55.90;;;;;;5095688;28;20119;-76
2021/07/09 10:04:54;;;;;;;6.88;5.68;;;31.00;55.70;;;;;;5095686;28;20136;-77
2021/07/09 10:07:20;;;;;;;8.77;6.18;;;31.00;56.10;;;;;;5095524;28;20121;-77
2021/07/09 10:09:48;;;;;;;8.32;5.70;;;31.00;56.30;;;;;;5111226;28;20028;-77
2021/07/09 10:12:18;;;;;;;7.32;6.00;;;31.00;56.10;;;;;;5095468;28;20028;-77
2021/07/09 10:14:45;;;;;;;8.63;6.10;;;31.00;56.40;;;;;;5077125;28;20047;-77
2021/07/09 10:17:15;;;;;;;6.75;5.72;;;31.00;56.50;;;;;;5095323;28;20408;-78
2021/07/09 10:19:44;;;;;;;8.05;6.00;;;31.00;56.60;;;;;;5095663;28;20071;-82
2021/07/09 10:22:10;;;;;;;8.75;5.50;;;31.00;57.30;;;;;;5095396;28;20096;-83
2021/07/09 10:24:43;;;;;;;10.55;5.43;;;31.00;57.40;;;;;;5095704;28;20114;-81
2021/07/09 10:27:10;;;;;;;7.10;5.28;;;31.00;55.90;;;;;;5095565;28;20063;-83
2021/07/09 10:29:42;;;;;;;7.00;5.82;;;31.00;56.00;;;;;;5095671;28;20384;-79
2021/07/09 10:32:08;;;;;;;6.95;5.47;;;31.00;56.00;;;;;;5110935;28;20031;-80
2021/07/09 10:34:41;;;;;;;5.85;5.20;;;31.00;55.50;;;;;;5095133;28;20084;-84
2021/07/09 10:37:20;;;;;;;10.77;5.43;;;31.00;55.10;;;;;;5110701;28;20511;-85
2021/07/09 10:39:51;;;;;;;6.38;5.45;;;31.00;54.80;;;;;;5095045;28;20036;-94
2021/07/09 10:42:39;;;;;;;9.68;5.43;;;31.00;55.20;;;;;;5076986;28;20047;-86
2021/07/09 10:45:12;;;;;;;6.05;5.45;;;31.00;55.60;;;;;;5111143;28;20043;-93
2021/07/09 10:47:41;;;;;;;12.23;5.72;;;31.00;56.00;;;;;;5110723;28;20031;-85
2021/07/09 10:50:25;;;;;;;7.00;5.22;;;31.00;56.20;;;;;;5094757;28;20043;-83
2021/07/09 10:52:58;;;;;;;7.07;5.50;;;31.00;55.70;;;;;;5094996;28;20032;-83
2021/07/09 10:55:24;;;;;;;8.50;5.68;;;31.00;55.50;;;;;;5094645;28;20134;-83
2021/07/09 10:58:17;;;;;;;6.80;5.85;;;31.10;55.50;;;;;;5076629;28;20115;-80
2021/07/09 11:00:47;;;;;;;7.20;5.78;;;31.00;55.90;;;;;;5077068;28;20135;-80
2021/07/09 11:03:45;;;;;;;7.78;6.07;;;31.00;56.40;;;;;;5094615;28;20448;-79
2021/07/09 11:06:33;;;;;;;7.90;5.55;;;31.00;56.50;;;;;;5084067;28;20047;-80
2021/07/09 11:09:05;;;;;;;6.85;5.30;;;31.00;56.30;;;;;;5094729;28;20033;-79
2021/07/09 11:11:30;;;;;;;7.18;5.57;;;31.00;55.60;;;;;;5094443;28;20173;-80
2021/07/09 11:14:05;;;;;;;8.63;5.53;;;31.00;55.70;;;;;;5094374;28;20070;-79
2021/07/09 11:16:38;;;;;;;7.97;5.00;;;31.00;55.20;;;;;;5094383;28;20120;-80
2021/07/09 11:19:10;;;;;;;7.18;5.35;;;31.00;54.40;;;;;;5094627;28;20043;-78
2021/07/09 11:21:35;;;;;;;6.53;4.88;;;31.00;54.10;;;;;;5094228;28;20039;-77
2021/07/09 11:24:10;;;;;;;7.65;4.90;;;31.00;54.30;;;;;;5094171;28;20028;-79
2021/07/09 11:27:04;;;;;;;9.07;5.50;;;31.00;54.20;;;;;;5094665;28;20438;-79
2021/07/09 11:29:32;;;;;;;8.80;5.80;;;31.00;54.40;;;;;;5073004;28;20437;-79
2021/07/09 11:32:04;;;;;;;10.48;9.48;;;31.00;54.40;;;;;;5094317;28;20035;-79
2021/07/09 11:34:39;;;;;;;13.13;10.63;;;31.00;55.10;;;;;;5093964;28;20071;-82
2021/07/09 11:37:09;;;;;;;10.88;9.73;;;31.00;55.60;;;;;;5093522;28;20165;-79
2021/07/09 11:39:46;;;;;;;9.80;8.85;;;31.00;55.00;;;;;;5093936;28;20066;-80
2021/07/09 11:42:17;;;;;;;9.02;8.10;;;31.00;55.10;;;;;;5094035;28;20038;-79
2021/07/09 11:44:48;;;;;;;9.35;7.28;;;31.00;55.00;;;;;;5093814;28;20043;-79
2021/07/09 11:47:23;;;;;;;6.88;6.28;;;31.10;54.90;;;;;;5093625;28;20036;-79
2021/07/09 11:50:03;;;;;;;8.40;6.13;;;31.00;54.70;;;;;;5093671;28;20038;-79
2021/07/09 11:52:31;;;;;;;6.15;5.55;;;31.00;54.60;;;;;;5093924;28;20078;-78
2021/07/09 11:55:00;;;;;;;5.43;4.93;;;31.00;54.30;;;;;;5093361;28;20040;-78
2021/07/09 11:57:31;;;;;;;5.70;5.20;;;31.00;54.00;;;;;;5093362;28;20170;-78
2021/07/09 12:00:02;;;;;;;8.13;5.40;;;31.00;54.10;;;;;;5092903;28;20077;-79
2021/07/09 12:02:38;;;;;;;7.50;5.32;;;31.00;54.30;;;;;;5093444;28;20090;-85
2021/07/09 12:05:07;;;;;;;7.45;5.53;;;31.00;54.00;;;;;;5093332;28;20144;-87
2021/07/09 12:07:34;;;;;;;6.10;5.18;;;31.00;54.20;;;;;;5075135;28;20044;-79
2021/07/09 12:10:13;;;;;;;5.50;4.90;;;31.00;53.80;;;;;;5093325;28;20114;-78
2021/07/09 12:12:53;;;;;;;5.78;5.10;;;31.00;54.00;;;;;;5093084;28;20117;-79
2021/07/09 12:15:21;;;;;;;5.05;4.53;;;31.00;53.90;;;;;;5093716;28;20517;-80
2021/07/09 12:17:59;;;;;;;7.72;5.00;;;31.00;53.60;;;;;;5093400;28;20047;-77
2021/07/09 12:20:35;;;;;;;7.68;5.10;;;31.00;53.90;;;;;;5093630;28;20047;-77
2021/07/09 12:23:02;;;;;;;5.45;4.93;;;31.00;53.40;;;;;;5075237;28;20093;-77
2021/07/09 12:25:34;;;;;;;9.48;4.95;;;31.00;53.40;;;;;;5093455;28;20046;-76
2021/07/09 12:28:03;;;;;;;9.65;4.78;;;31.00;53.00;;;;;;5093210;28;20044;-77
2021/07/09 12:30:33;;;;;;;8.55;4.93;;;31.00;53.10;;;;;;5109510;28;20032;-78
2021/07/09 12:33:05;;;;;;;5.80;4.60;;;30.90;52.60;;;;;;5093293;28;20501;-78
2021/07/09 12:35:34;;;;;;;7.25;5.50;;;31.00;50.40;;;;;;5091543;28;20135;-77
2021/07/09 12:38:09;;;;;;;17.10;7.05;;;31.00;51.40;;;;;;5092835;28;20131;-79
2021/07/09 12:40:41;;;;;;;19.05;7.35;;;31.00;51.70;;;;;;5075004;28;20036;-77
2021/07/09 12:43:27;;;;;;;16.65;7.80;;;31.00;51.90;;;;;;5074730;28;20624;-78
2021/07/09 12:46:00;;;;;;;15.07;7.43;;;31.00;52.30;;;;;;5093159;28;20509;-85